Jiu Hua San — 9VBK2 — position and weather

sailwx.info

Track history (hours):
 
Tides and Currents Weather Stations Pressure Air Temp Water Temp Dewpoint Dewpoint Depression Visibility Wind Speed Wind Dir Waves Ship Positions

Jiu Hua San

Last reported at 2017-Mar-01 03:24 UTC. Time now 2017-Mar-01 20:08 UTC.
Position N 38°58' E 121°54'.

Length 333 m; draft 21 m.

Type: Ship. MMSI: 565914000.

Date/timePositionNaut miles runAvg speedWind from/ knotsBaromVisibWave heightAir tempDewpointWater temp
2017-Mar-01 03:24N 38°58' E 121°54'2 2.8
2017-Mar-01 02:33N 38°55' E 121°55'6 6.2
2017-Mar-01 01:33N 38°52' E 122°02'0 0.4
2017-Mar-01 00:33N 38°52' E 122°02'0 0.1
2017-Feb-28 23:33N 38°52' E 122°02'0 0.0
2017-Feb-28 22:27N 38°52' E 122°02'0 0.2
2017-Feb-28 21:06N 38°52' E 122°02'0 0.1
2017-Feb-28 18:24N 38°52' E 122°02'0 0.0
2017-Feb-28 17:33N 38°52' E 122°02'0 0.0
2017-Feb-28 14:09N 38°52' E 122°02'0 0.4
2017-Feb-28 13:12N 38°52' E 122°02'0 0.1
2017-Feb-28 12:24N 38°52' E 122°02'0 0.0
2017-Feb-28 10:30N 38°52' E 122°02'0 0.0
2017-Feb-28 08:30N 38°52' E 122°02'0 0.2
2017-Feb-28 07:12N 38°52' E 122°02'0 0.0
2017-Feb-28 01:33N 38°52' E 122°02'0 0.1
2017-Feb-28 00:33N 38°52' E 122°02'3 3.4
2017-Feb-27 23:33N 38°49' E 121°59'7 7.0
2017-Feb-27 22:33N 38°44' E 122°06'1310.8
2017-Feb-27 21:19N 38°36' E 122°20'1211.3
2017-Feb-27 20:15N 38°29' E 122°32'15 5.0
2017-Feb-27 17:14N 38°19' E 122°46'4 6.0
2017-Feb-27 16:30N 38°16' E 122°51'  
Track history (hours):
 
Tides and Currents Weather Stations Pressure Air Temp Water Temp Dewpoint Dewpoint Depression Visibility Wind Speed Wind Dir Waves Ship Positions

Jiu Hua San

Last reported at 2017-Mar-01 03:24 UTC. Time now 2017-Mar-01 20:08 UTC.
Position N 38°58' E 121°54'.

Length 333 m; draft 21 m.

Type: Ship. MMSI: 565914000.

Date/timePositionNaut miles runAvg speedWind from/ knotsBaromVisibWave heightAir tempDewpointWater temp
2017-Mar-01 03:24N 38°58' E 121°54'2 2.8
2017-Mar-01 02:33N 38°55' E 121°55'6 6.2
2017-Mar-01 01:33N 38°52' E 122°02'0 0.4
2017-Mar-01 00:33N 38°52' E 122°02'0 0.1
2017-Feb-28 23:33N 38°52' E 122°02'0 0.0
2017-Feb-28 22:27N 38°52' E 122°02'0 0.2
2017-Feb-28 21:06N 38°52' E 122°02'0 0.1
2017-Feb-28 18:24N 38°52' E 122°02'0 0.0
2017-Feb-28 17:33N 38°52' E 122°02'0 0.0
2017-Feb-28 14:09N 38°52' E 122°02'0 0.4
2017-Feb-28 13:12N 38°52' E 122°02'0 0.1
2017-Feb-28 12:24N 38°52' E 122°02'0 0.0
2017-Feb-28 10:30N 38°52' E 122°02'0 0.0
2017-Feb-28 08:30N 38°52' E 122°02'0 0.2
2017-Feb-28 07:12N 38°52' E 122°02'0 0.0
2017-Feb-28 01:33N 38°52' E 122°02'0 0.1
2017-Feb-28 00:33N 38°52' E 122°02'3 3.4
2017-Feb-27 23:33N 38°49' E 121°59'7 7.0
2017-Feb-27 22:33N 38°44' E 122°06'1310.8
2017-Feb-27 21:19N 38°36' E 122°20'1211.3
2017-Feb-27 20:15N 38°29' E 122°32'15 5.0
2017-Feb-27 17:14N 38°19' E 122°46'4 6.0
2017-Feb-27 16:30N 38°16' E 122°51'  

Dump ship's entire track history